Time;durP1;ratioP1;P1;durP2;ratioP2;P2;SDS_P1;SDS_P2;PMS_P1;PMS_P2;Temp;Humidity;BMP_temperature;BMP_pressure;BME280_temperature;BME280_humidity;BME280_pressure;Samples;Min_cycle;Max_cycle;Signal;HPM_P1;HPM_P2
2023/06/21 00:01:38;;;;;;;15.93;6.78;;;19.70;99.90;;;;;;5131601;27;20032;-64
2023/06/21 00:04:05;;;;;;;14.30;6.32;;;19.70;99.90;;;;;;5124504;27;20394;-64
2023/06/21 00:06:34;;;;;;;19.60;7.43;;;19.80;99.90;;;;;;5126441;27;20397;-63
2023/06/21 00:09:05;;;;;;;22.02;6.55;;;19.70;99.90;;;;;;5125597;27;20510;-63
2023/06/21 00:11:32;;;;;;;14.38;6.68;;;19.70;99.90;;;;;;5132355;27;20042;-64
2023/06/21 00:14:01;;;;;;;14.50;6.35;;;19.70;99.90;;;;;;5125053;27;20046;-64
2023/06/21 00:16:28;;;;;;;16.95;6.75;;;19.70;99.90;;;;;;5114591;27;20055;-64
2023/06/21 00:18:54;;;;;;;14.88;6.63;;;19.60;99.90;;;;;;5121017;27;20043;-64
2023/06/21 00:21:21;;;;;;;16.95;6.55;;;19.60;99.90;;;;;;5121791;27;20074;-64
2023/06/21 00:23:48;;;;;;;15.75;6.55;;;19.60;99.90;;;;;;5132876;27;20031;-63
2023/06/21 00:26:15;;;;;;;14.82;6.43;;;19.50;99.90;;;;;;5132511;27;20039;-64
2023/06/21 00:28:41;;;;;;;18.45;6.53;;;19.50;99.90;;;;;;5113464;27;20054;-63
2023/06/21 00:31:10;;;;;;;16.17;6.88;;;19.50;99.90;;;;;;5123767;27;20508;-64
2023/06/21 00:33:38;;;;;;;17.38;6.35;;;19.40;99.90;;;;;;5113519;27;20039;-62
2023/06/21 00:36:05;;;;;;;15.20;6.13;;;19.30;99.90;;;;;;5113579;27;20568;-63
2023/06/21 00:38:34;;;;;;;16.02;6.25;;;19.30;99.90;;;;;;5112428;27;20388;-63
2023/06/21 00:41:05;;;;;;;14.73;6.43;;;19.30;99.90;;;;;;5125427;27;20039;-64
2023/06/21 00:43:32;;;;;;;21.80;7.43;;;19.30;99.90;;;;;;5104629;27;20043;-64
2023/06/21 00:45:59;;;;;;;19.48;6.57;;;19.20;99.90;;;;;;5113178;27;20047;-63
2023/06/21 00:48:28;;;;;;;;;;;19.30;99.90;;;;;;5112204;28;20048;-64
2023/06/21 00:50:58;;;;;;;18.20;5.93;;;19.20;99.90;;;;;;5105154;27;19919;-64
2023/06/21 00:53:27;;;;;;;24.95;6.90;;;19.30;99.90;;;;;;5104610;28;20092;-64
2023/06/21 00:56:00;;;;;;;14.93;6.72;;;19.30;99.90;;;;;;5124085;28;20050;-63
2023/06/21 00:58:28;;;;;;;16.17;5.97;;;19.20;99.90;;;;;;5131615;28;20042;-63
2023/06/21 01:00:55;;;;;;;16.98;7.40;;;19.20;99.90;;;;;;5116979;28;20042;-63
2023/06/21 01:03:23;;;;;;;15.80;6.60;;;19.20;99.90;;;;;;5103452;28;20044;-63
2023/06/21 01:06:21;;;;;;;17.77;6.60;;;19.10;99.90;;;;;;5108212;28;20031;-64
2023/06/21 01:09:26;;;;;;;17.77;7.40;;;19.20;99.90;;;;;;5119856;28;20391;-63
2023/06/21 01:12:22;;;;;;;21.33;6.97;;;19.10;99.90;;;;;;5112751;28;20047;-64
2023/06/21 01:14:52;;;;;;;18.73;7.40;;;19.00;99.90;;;;;;5113341;28;20043;-64
2023/06/21 01:17:20;;;;;;;16.98;7.38;;;19.00;99.90;;;;;;5109568;28;20052;-63
2023/06/21 01:19:55;;;;;;;14.27;6.68;;;18.90;99.90;;;;;;5113527;28;20104;-63
2023/06/21 01:22:22;;;;;;;16.67;6.60;;;19.00;99.90;;;;;;5104048;28;20050;-64
2023/06/21 01:25:14;;;;;;;19.67;6.68;;;18.90;99.90;;;;;;5108658;28;20124;-64
2023/06/21 01:28:05;;;;;;;18.58;7.30;;;18.90;99.90;;;;;;5101621;28;20043;-64
2023/06/21 01:30:33;;;;;;;16.48;6.68;;;18.90;99.90;;;;;;5130451;28;20061;-64
2023/06/21 01:33:05;;;;;;;16.75;6.90;;;18.90;99.90;;;;;;5112157;28;20141;-64
2023/06/21 01:35:32;;;;;;;15.98;6.53;;;18.90;99.90;;;;;;5102488;28;20058;-64
2023/06/21 01:38:02;;;;;;;14.65;7.03;;;18.90;99.90;;;;;;5100276;28;20044;-64
2023/06/21 01:40:29;;;;;;;17.40;7.20;;;18.90;99.90;;;;;;5130245;27;20514;-63
2023/06/21 01:42:56;;;;;;;17.13;7.15;;;18.90;99.90;;;;;;5109643;28;20050;-63
2023/06/21 01:45:23;;;;;;;15.40;6.70;;;18.90;99.90;;;;;;5113943;27;20078;-64
2023/06/21 01:47:50;;;;;;;21.67;7.35;;;18.90;99.90;;;;;;5104861;27;20046;-62
2023/06/21 01:50:17;;;;;;;;;;;18.80;99.90;;;;;;5133021;27;20092;-62
2023/06/21 01:52:46;;;;;;;16.50;7.18;;;18.80;99.90;;;;;;5116865;27;19919;-60
2023/06/21 01:55:14;;;;;;;15.90;6.65;;;18.80;99.90;;;;;;5107609;27;20145;-62
2023/06/21 01:57:41;;;;;;;16.77;7.45;;;18.70;99.90;;;;;;5116876;27;20490;-62
2023/06/21 02:00:17;;;;;;;18.50;7.70;;;18.70;99.90;;;;;;5109469;28;20146;-62
2023/06/21 02:02:48;;;;;;;;;;;18.60;99.90;;;;;;5126976;27;20035;-62
2023/06/21 02:05:16;;;;;;;23.73;8.32;;;18.50;99.90;;;;;;5119429;27;19923;-62
2023/06/21 02:07:48;;;;;;;16.10;6.60;;;18.60;99.90;;;;;;5116927;27;20054;-62
2023/06/21 02:10:16;;;;;;;17.58;6.90;;;18.50;99.90;;;;;;5116669;27;20057;-62
2023/06/21 02:12:50;;;;;;;19.00;8.38;;;18.50;99.90;;;;;;5116529;27;20027;-62
2023/06/21 02:15:17;;;;;;;25.10;7.57;;;18.50;99.90;;;;;;5131354;27;20070;-62
2023/06/21 02:17:48;;;;;;;19.42;7.40;;;18.50;99.90;;;;;;5116655;27;20065;-62
2023/06/21 02:20:17;;;;;;;19.58;7.90;;;18.50;99.90;;;;;;5134816;27;20704;-61
2023/06/21 02:22:44;;;;;;;19.63;7.90;;;18.60;99.90;;;;;;5114066;27;20031;-62
2023/06/21 02:25:12;;;;;;;22.48;8.13;;;18.50;99.90;;;;;;5134970;27;20036;-62
2023/06/21 02:27:40;;;;;;;18.38;8.35;;;18.50;99.90;;;;;;5125837;27;20038;-62
2023/06/21 02:30:08;;;;;;;16.75;7.03;;;18.50;99.90;;;;;;5108105;27;20039;-62
2023/06/21 02:32:36;;;;;;;17.02;7.55;;;18.60;99.90;;;;;;5128297;27;20039;-62
2023/06/21 02:35:04;;;;;;;19.77;7.95;;;18.50;99.90;;;;;;5134983;27;20448;-62
2023/06/21 02:37:31;;;;;;;18.95;7.13;;;18.50;99.90;;;;;;5107760;27;20043;-62
2023/06/21 02:39:58;;;;;;;17.52;7.28;;;18.50;99.90;;;;;;5122584;27;20131;-62
2023/06/21 02:42:28;;;;;;;17.17;8.00;;;18.40;99.90;;;;;;5107465;27;20044;-62
2023/06/21 02:44:55;;;;;;;18.23;7.90;;;18.30;99.90;;;;;;5110722;28;20054;-62
2023/06/21 02:47:22;;;;;;;16.27;7.60;;;18.40;99.90;;;;;;5132025;27;20038;-62
2023/06/21 02:49:49;;;;;;;19.00;7.68;;;18.30;99.90;;;;;;5114697;27;20410;-62
2023/06/21 02:52:15;;;;;;;16.23;7.70;;;18.30;99.90;;;;;;5134613;27;20039;-62
2023/06/21 02:54:42;;;;;;;15.60;7.65;;;18.20;99.90;;;;;;5134331;27;20027;-62
2023/06/21 02:57:10;;;;;;;16.23;7.18;;;18.20;99.90;;;;;;5127368;27;20476;-62
2023/06/21 02:59:37;;;;;;;20.73;8.35;;;18.20;99.90;;;;;;5115677;27;20038;-62
2023/06/21 03:02:04;;;;;;;20.60;7.57;;;18.20;99.90;;;;;;5101658;27;20038;-62
2023/06/21 03:04:31;;;;;;;;;;;18.20;99.90;;;;;;5114374;27;20400;-62
2023/06/21 03:07:01;;;;;;;12.88;7.13;;;18.10;99.90;;;;;;5105345;28;19923;-62
2023/06/21 03:09:28;;;;;;;19.60;7.55;;;18.10;99.90;;;;;;5113472;27;20082;-62
2023/06/21 03:11:57;;;;;;;20.23;7.65;;;18.20;99.90;;;;;;5115232;27;20122;-62
2023/06/21 03:14:24;;;;;;;;;;;18.10;99.90;;;;;;5107638;27;20047;-62
2023/06/21 03:16:51;;;;;;;21.08;7.57;;;18.10;99.90;;;;;;5113516;27;19954;-62
2023/06/21 03:19:18;;;;;;;16.70;7.55;;;18.20;99.90;;;;;;5107167;27;20067;-62
2023/06/21 03:21:46;;;;;;;20.75;8.43;;;18.10;99.90;;;;;;5114960;27;20035;-62
2023/06/21 03:24:13;;;;;;;21.35;7.60;;;18.10;99.90;;;;;;5106866;28;20050;-62
2023/06/21 03:26:42;;;;;;;12.02;6.97;;;18.10;99.90;;;;;;5113610;27;20045;-62
2023/06/21 03:29:09;;;;;;;20.70;8.05;;;18.00;99.90;;;;;;5133979;27;20043;-62
2023/06/21 03:31:37;;;;;;;18.73;7.25;;;18.00;99.90;;;;;;5112549;27;20048;-62
2023/06/21 03:34:04;;;;;;;17.25;7.82;;;18.00;99.90;;;;;;5115392;27;20464;-62
2023/06/21 03:36:31;;;;;;;21.92;8.02;;;17.90;99.90;;;;;;5114277;27;20047;-62
2023/06/21 03:38:58;;;;;;;18.55;8.05;;;17.90;99.90;;;;;;5110000;28;20551;-62
2023/06/21 03:41:25;;;;;;;15.82;7.80;;;17.90;99.90;;;;;;5110080;27;20043;-62
2023/06/21 03:43:54;;;;;;;21.85;8.25;;;17.80;99.90;;;;;;5106680;27;20055;-62
2023/06/21 03:46:20;;;;;;;22.67;8.13;;;17.80;99.90;;;;;;5114700;27;20053;-62
2023/06/21 03:48:51;;;;;;;18.40;7.72;;;17.80;99.90;;;;;;5109375;27;20402;-62
2023/06/21 03:51:20;;;;;;;13.02;7.20;;;17.80;99.90;;;;;;5102583;28;20047;-61
2023/06/21 03:53:48;;;;;;;20.33;8.07;;;17.80;99.90;;;;;;5114486;27;20039;-62
2023/06/21 03:56:17;;;;;;;21.65;9.02;;;17.80;99.90;;;;;;5124235;27;20051;-62
2023/06/21 03:58:44;;;;;;;20.50;8.02;;;17.80;99.90;;;;;;5114767;27;20406;-62
2023/06/21 04:01:11;;;;;;;16.48;8.25;;;17.80;99.90;;;;;;5113559;27;20491;-62
2023/06/21 04:03:37;;;;;;;13.35;7.82;;;17.80;99.90;;;;;;5112277;27;20036;-62
2023/06/21 04:06:04;;;;;;;18.55;7.85;;;17.90;99.90;;;;;;5111730;27;20043;-62
2023/06/21 04:08:31;;;;;;;16.75;7.57;;;17.70;99.90;;;;;;5113056;27;20039;-62
2023/06/21 04:10:58;;;;;;;19.15;7.70;;;17.70;99.90;;;;;;5113747;27;20053;-62
2023/06/21 04:13:25;;;;;;;18.88;7.57;;;17.70;99.90;;;;;;5104376;27;20404;-62
2023/06/21 04:15:51;;;;;;;17.08;8.77;;;17.70;99.90;;;;;;5132684;27;20058;-62
2023/06/21 04:18:18;;;;;;;18.45;8.43;;;17.70;99.90;;;;;;5113840;27;20095;-62
2023/06/21 04:20:46;;;;;;;17.20;7.63;;;17.60;99.90;;;;;;5113628;27;20039;-62
2023/06/21 04:23:13;;;;;;;19.27;7.75;;;17.60;99.90;;;;;;5123663;27;20525;-62
2023/06/21 04:25:40;;;;;;;13.57;8.18;;;17.60;99.90;;;;;;5114332;27;20047;-62
2023/06/21 04:28:06;;;;;;;14.20;8.10;;;17.70;99.90;;;;;;5110670;27;20051;-62
2023/06/21 04:30:34;;;;;;;21.65;8.95;;;17.80;99.90;;;;;;5129893;27;20126;-62
2023/06/21 04:33:01;;;;;;;14.45;7.47;;;17.80;99.90;;;;;;5134917;27;20492;-62
2023/06/21 04:35:28;;;;;;;20.50;8.90;;;17.80;99.90;;;;;;5119135;27;20118;-62
2023/06/21 04:37:55;;;;;;;20.13;8.07;;;17.90;99.90;;;;;;5138094;27;20387;-62
2023/06/21 04:40:22;;;;;;;20.10;8.23;;;17.90;99.90;;;;;;5138813;27;20042;-62
2023/06/21 04:42:55;;;;;;;19.08;8.40;;;18.00;99.90;;;;;;5137082;27;20038;-62
2023/06/21 04:45:25;;;;;;;20.98;8.48;;;18.10;99.90;;;;;;5135443;27;20372;-63
2023/06/21 04:47:56;;;;;;;18.92;8.70;;;18.10;99.90;;;;;;5125237;27;20035;-63
2023/06/21 04:50:25;;;;;;;17.13;8.15;;;18.10;99.90;;;;;;5134327;27;20043;-63
2023/06/21 04:52:57;;;;;;;17.35;7.60;;;18.10;99.90;;;;;;5134958;27;20289;-63
2023/06/21 04:55:26;;;;;;;18.90;7.95;;;18.10;99.90;;;;;;5136450;27;20046;-63
2023/06/21 04:57:53;;;;;;;17.23;7.97;;;18.20;99.90;;;;;;5132363;27;20035;-63
2023/06/21 05:00:20;;;;;;;19.65;8.10;;;18.10;99.90;;;;;;5112197;28;20035;-63
2023/06/21 05:02:47;;;;;;;18.70;8.10;;;18.20;99.90;;;;;;5130106;27;20039;-62
2023/06/21 05:05:14;;;;;;;22.77;8.48;;;18.30;99.90;;;;;;5134466;27;20039;-63
2023/06/21 05:07:41;;;;;;;13.43;7.85;;;18.30;99.90;;;;;;5133206;27;20074;-63
2023/06/21 05:10:09;;;;;;;19.83;7.78;;;18.30;99.90;;;;;;5130030;27;20043;-63
2023/06/21 05:12:37;;;;;;;23.85;8.35;;;18.40;99.90;;;;;;5130977;27;20135;-63
2023/06/21 05:15:05;;;;;;;;;;;18.40;99.90;;;;;;5131844;28;20519;-63
2023/06/21 05:17:32;;;;;;;;;;;18.40;99.90;;;;;;5131463;27;19923;-63
2023/06/21 05:19:59;;;;;;;18.80;8.57;;;18.50;99.90;;;;;;5130382;27;19919;-62
2023/06/21 05:22:25;;;;;;;14.68;8.27;;;18.50;99.90;;;;;;5135523;27;20395;-63
2023/06/21 05:24:52;;;;;;;19.45;8.65;;;18.50;99.90;;;;;;5134664;27;20035;-63
2023/06/21 05:27:19;;;;;;;17.63;8.35;;;18.50;99.90;;;;;;5135867;27;20039;-63
2023/06/21 05:29:46;;;;;;;25.42;9.00;;;18.60;99.90;;;;;;5115170;27;20043;-62
2023/06/21 05:32:13;;;;;;;18.23;8.98;;;18.70;99.90;;;;;;5132092;27;20042;-62
2023/06/21 05:34:40;;;;;;;17.70;8.27;;;18.80;99.90;;;;;;5133973;27;20031;-62
2023/06/21 05:37:07;;;;;;;20.85;8.73;;;19.00;99.90;;;;;;5115036;27;20126;-63
2023/06/21 05:39:33;;;;;;;15.80;8.70;;;19.00;99.90;;;;;;5133520;27;20039;-62
2023/06/21 05:42:00;;;;;;;22.00;9.43;;;19.10;99.90;;;;;;5127695;27;20045;-62
2023/06/21 05:44:27;;;;;;;22.23;9.50;;;19.20;99.90;;;;;;5117737;27;20051;-62
2023/06/21 05:46:54;;;;;;;21.25;9.40;;;19.30;99.90;;;;;;5120429;27;20031;-63
2023/06/21 05:49:20;;;;;;;19.63;8.95;;;19.40;99.90;;;;;;5115099;27;20123;-62
2023/06/21 05:51:47;;;;;;;20.98;9.55;;;19.50;99.90;;;;;;5121161;27;20043;-62
2023/06/21 05:54:14;;;;;;;29.55;12.38;;;19.60;99.90;;;;;;5128935;27;20043;-62
2023/06/21 05:56:41;;;;;;;;;;;19.70;99.90;;;;;;5124374;27;20118;-61
2023/06/21 05:59:08;;;;;;;22.73;11.25;;;19.80;99.90;;;;;;5134144;27;19923;-62
2023/06/21 06:01:36;;;;;;;24.95;11.70;;;20.00;99.90;;;;;;5133540;27;20031;-63
2023/06/21 06:04:03;;;;;;;24.58;11.05;;;20.00;99.90;;;;;;5127878;27;20078;-62
2023/06/21 06:06:39;;;;;;;29.38;10.95;;;20.10;99.90;;;;;;5134809;27;20573;-62
2023/06/21 06:09:07;;;;;;;33.72;12.20;;;20.10;99.90;;;;;;5134130;27;20414;-62
2023/06/21 06:11:34;;;;;;;28.05;10.90;;;20.20;99.90;;;;;;5131392;27;20130;-62
2023/06/21 06:14:02;;;;;;;24.58;11.40;;;20.30;99.90;;;;;;5126919;27;20047;-62
2023/06/21 06:16:29;;;;;;;29.27;11.88;;;20.40;99.90;;;;;;5134640;27;20043;-62
2023/06/21 06:18:55;;;;;;;23.55;10.25;;;20.50;99.90;;;;;;5126365;27;20035;-63
2023/06/21 06:21:22;;;;;;;23.23;11.30;;;20.50;99.90;;;;;;5126961;27;20040;-63
2023/06/21 06:23:53;;;;;;;22.75;10.20;;;20.60;99.90;;;;;;5133775;27;20411;-63
2023/06/21 06:26:24;;;;;;;19.80;10.07;;;20.70;99.90;;;;;;5134411;27;20039;-62
2023/06/21 06:28:52;;;;;;;23.10;9.95;;;20.80;99.90;;;;;;5134123;27;20125;-62
2023/06/21 06:31:27;;;;;;;31.75;10.55;;;20.90;99.90;;;;;;5125395;27;20047;-63
2023/06/21 06:33:54;;;;;;;29.02;10.75;;;21.00;99.90;;;;;;5134476;27;20116;-63
2023/06/21 06:36:21;;;;;;;23.08;10.45;;;21.20;99.90;;;;;;5132599;27;20043;-62
2023/06/21 06:38:48;;;;;;;;;;;21.20;99.90;;;;;;5134785;27;20040;-62
2023/06/21 06:41:16;;;;;;;25.67;8.82;;;21.30;99.90;;;;;;5123034;27;19924;-63
2023/06/21 06:43:43;;;;;;;24.60;10.02;;;21.50;99.90;;;;;;5134363;27;20050;-63
2023/06/21 06:46:10;;;;;;;;;;;21.60;99.90;;;;;;5134594;27;20035;-63
2023/06/21 06:48:37;;;;;;;30.77;9.98;;;21.80;99.90;;;;;;5128398;27;20271;-61
2023/06/21 06:51:03;;;;;;;32.80;9.57;;;21.90;99.90;;;;;;5133441;27;20449;-62
2023/06/21 06:53:30;;;;;;;24.42;9.23;;;22.00;99.90;;;;;;5115507;27;20047;-63
2023/06/21 06:55:58;;;;;;;29.55;10.32;;;22.00;99.90;;;;;;5132782;27;20035;-63
2023/06/21 06:58:27;;;;;;;34.13;10.60;;;22.20;99.90;;;;;;5122223;27;20040;-63
2023/06/21 07:00:54;;;;;;;25.90;10.43;;;22.40;99.90;;;;;;5133114;27;20039;-62
2023/06/21 07:03:21;;;;;;;22.27;9.18;;;22.60;99.90;;;;;;5133055;27;20049;-63
2023/06/21 07:05:48;;;;;;;28.50;10.32;;;22.70;99.90;;;;;;5132067;27;20073;-63
2023/06/21 07:08:16;;;;;;;24.73;9.93;;;22.80;99.90;;;;;;5124545;27;20529;-63
2023/06/21 07:10:43;;;;;;;23.75;9.57;;;23.00;99.90;;;;;;5133159;27;20269;-62
2023/06/21 07:13:10;;;;;;;;;;;23.10;99.90;;;;;;5125416;27;20121;-63
2023/06/21 07:15:36;;;;;;;27.73;10.98;;;23.20;99.90;;;;;;5130315;27;19919;-62
2023/06/21 07:18:03;;;;;;;21.15;9.52;;;23.20;99.90;;;;;;5131688;27;20027;-63
2023/06/21 07:20:31;;;;;;;;;;;23.30;99.90;;;;;;5133478;27;20043;-62
2023/06/21 07:22:58;;;;;;;24.30;11.23;;;23.30;99.90;;;;;;5131903;27;19919;-63
2023/06/21 07:25:26;;;;;;;29.77;9.75;;;23.50;99.90;;;;;;5133612;27;20047;-63
2023/06/21 07:27:52;;;;;;;;;;;23.60;99.90;;;;;;5114841;27;20058;-63
2023/06/21 07:30:20;;;;;;;29.65;10.45;;;23.70;99.90;;;;;;5133464;27;20398;-63
2023/06/21 07:32:47;;;;;;;25.15;9.73;;;23.80;99.90;;;;;;5125116;27;20050;-63
2023/06/21 07:35:15;;;;;;;26.92;9.93;;;23.70;99.90;;;;;;5133036;27;20039;-63
2023/06/21 07:37:50;;;;;;;18.27;9.80;;;23.70;99.90;;;;;;5132656;27;20054;-62
2023/06/21 07:40:17;;;;;;;21.65;9.80;;;23.80;99.90;;;;;;5132338;27;20122;-63
2023/06/21 07:42:44;;;;;;;20.33;10.32;;;23.80;99.90;;;;;;5128872;27;20035;-63
2023/06/21 07:45:11;;;;;;;25.67;10.43;;;23.90;99.90;;;;;;5132973;27;20126;-63
2023/06/21 07:47:38;;;;;;;25.70;10.63;;;24.10;99.90;;;;;;5132712;27;20100;-62
2023/06/21 07:50:05;;;;;;;24.60;9.75;;;24.10;99.90;;;;;;5131127;27;20044;-63
2023/06/21 07:52:35;;;;;;;21.35;10.13;;;24.30;99.90;;;;;;5130581;27;20043;-63
2023/06/21 07:55:05;;;;;;;20.15;10.10;;;24.40;99.90;;;;;;5132930;27;20121;-63
2023/06/21 07:57:32;;;;;;;27.42;9.73;;;24.50;99.90;;;;;;5130747;27;20046;-63
2023/06/21 08:00:08;;;;;;;23.38;10.30;;;24.60;99.90;;;;;;5132733;27;20042;-63
2023/06/21 08:02:38;;;;;;;22.73;9.60;;;24.60;99.90;;;;;;5128194;27;20544;-63
2023/06/21 08:05:06;;;;;;;23.92;10.27;;;24.70;99.90;;;;;;5131991;27;20043;-63
2023/06/21 08:07:32;;;;;;;;;;;24.80;99.90;;;;;;5131731;27;20479;-63
2023/06/21 08:10:00;;;;;;;21.20;10.65;;;24.80;99.90;;;;;;5128350;27;20108;-63
2023/06/21 08:12:26;;;;;;;26.70;11.15;;;25.00;99.90;;;;;;5132529;27;20057;-63
2023/06/21 08:14:53;;;;;;;20.33;10.32;;;25.00;99.90;;;;;;5132110;27;20039;-63
2023/06/21 08:17:20;;;;;;;21.00;9.90;;;25.10;99.90;;;;;;5132618;27;20047;-63
2023/06/21 08:19:47;;;;;;;24.55;10.00;;;25.20;99.90;;;;;;5127609;27;20430;-63
2023/06/21 08:22:13;;;;;;;19.45;9.32;;;25.20;99.90;;;;;;5132207;27;20471;-63
2023/06/21 08:24:40;;;;;;;21.67;10.02;;;25.20;99.90;;;;;;5131917;27;20409;-63
2023/06/21 08:27:07;;;;;;;24.58;9.95;;;25.30;99.90;;;;;;5125570;27;20046;-62
2023/06/21 08:29:34;;;;;;;21.48;10.27;;;25.40;99.90;;;;;;5128619;27;20510;-63
2023/06/21 08:32:01;;;;;;;17.17;9.27;;;25.60;99.90;;;;;;5131534;27;20039;-63
2023/06/21 08:34:28;;;;;;;16.45;9.45;;;25.80;99.90;;;;;;5121153;27;20130;-63
2023/06/21 08:36:55;;;;;;;28.67;9.75;;;26.00;99.90;;;;;;5131395;27;20049;-63
2023/06/21 08:39:21;;;;;;;21.70;10.48;;;26.00;99.90;;;;;;5131727;27;20045;-63
2023/06/21 08:41:48;;;;;;;22.38;9.75;;;26.10;99.90;;;;;;5131372;27;20031;-62
2023/06/21 08:44:15;;;;;;;26.77;9.30;;;26.30;99.90;;;;;;5111688;28;20039;-63
2023/06/21 08:46:42;;;;;;;19.05;9.27;;;26.50;99.90;;;;;;5120414;27;20046;-63
2023/06/21 08:49:16;;;;;;;20.33;9.40;;;26.80;99.90;;;;;;5132050;27;20047;-63
2023/06/21 08:51:48;;;;;;;19.23;8.80;;;26.80;99.90;;;;;;5126376;27;20047;-63
2023/06/21 08:54:19;;;;;;;21.02;8.57;;;26.70;99.90;;;;;;5126891;27;20043;-63
2023/06/21 08:56:48;;;;;;;19.52;8.60;;;26.60;99.90;;;;;;5131798;27;20085;-63
2023/06/21 08:59:41;;;;;;;15.70;8.23;;;26.70;99.90;;;;;;5131691;28;20039;-63
2023/06/21 09:02:30;;;;;;;17.55;8.27;;;26.70;99.90;;;;;;5123027;27;20122;-63
2023/06/21 09:05:02;;;;;;;19.23;8.07;;;26.80;99.90;;;;;;5131722;28;20046;-63
2023/06/21 09:07:30;;;;;;;14.60;7.95;;;27.00;99.90;;;;;;5131630;28;20475;-63
2023/06/21 09:09:59;;;;;;;16.00;8.35;;;27.00;99.90;;;;;;5124982;28;20050;-63
2023/06/21 09:12:27;;;;;;;16.60;8.75;;;27.00;99.90;;;;;;5126013;27;20410;-63
2023/06/21 09:14:54;;;;;;;16.48;8.45;;;26.90;99.90;;;;;;5131340;27;20483;-63
2023/06/21 09:17:22;;;;;;;15.75;8.65;;;27.00;99.90;;;;;;5125873;28;20046;-63
2023/06/21 09:19:50;;;;;;;24.73;8.77;;;27.00;99.90;;;;;;5131551;27;20042;-63
2023/06/21 09:22:18;;;;;;;15.55;8.52;;;27.10;99.90;;;;;;5130368;28;20042;-63
2023/06/21 09:24:45;;;;;;;18.63;8.48;;;27.10;99.90;;;;;;5123284;27;20040;-63
2023/06/21 09:27:11;;;;;;;;;;;27.20;99.90;;;;;;5125100;27;20046;-63
2023/06/21 09:29:38;;;;;;;20.45;8.88;;;27.30;99.90;;;;;;5131344;28;19996;-63
2023/06/21 09:32:05;;;;;;;20.25;9.20;;;27.30;99.90;;;;;;5130663;28;20039;-63
2023/06/21 09:34:32;;;;;;;19.73;8.98;;;27.40;99.90;;;;;;5128634;28;20039;-63
2023/06/21 09:36:59;;;;;;;19.75;8.93;;;27.40;99.90;;;;;;5130978;28;20058;-63
2023/06/21 09:39:28;;;;;;;16.40;9.30;;;27.40;99.90;;;;;;5130875;28;20499;-63
2023/06/21 09:41:55;;;;;;;17.85;8.82;;;27.30;99.90;;;;;;5127707;28;20487;-63
2023/06/21 09:44:23;;;;;;;18.95;9.13;;;27.30;99.90;;;;;;5131625;28;20031;-63
2023/06/21 09:46:57;;;;;;;15.77;9.05;;;27.40;99.90;;;;;;5130800;27;20050;-62
2023/06/21 09:49:27;;;;;;;19.50;9.48;;;27.50;99.90;;;;;;5131581;28;20108;-63
2023/06/21 09:51:56;;;;;;;17.38;9.45;;;27.50;99.90;;;;;;5127742;28;20042;-63
2023/06/21 09:54:23;;;;;;;17.02;9.20;;;27.60;99.90;;;;;;5131335;27;20031;-62
2023/06/21 09:56:50;;;;;;;;;;;27.70;99.90;;;;;;5124615;28;20050;-63
2023/06/21 09:59:19;;;;;;;15.63;8.73;;;27.70;99.90;;;;;;5131228;28;19927;-63
2023/06/21 10:01:48;;;;;;;18.48;8.88;;;27.70;99.90;;;;;;5129738;28;20407;-63
2023/06/21 10:04:16;;;;;;;23.65;8.63;;;27.80;99.90;;;;;;5134047;27;20062;-63
2023/06/21 10:06:50;;;;;;;18.27;7.93;;;27.90;99.90;;;;;;5127890;27;20039;-63
2023/06/21 10:09:18;;;;;;;15.45;8.15;;;27.80;99.90;;;;;;5135032;27;20043;-63
2023/06/21 10:11:46;;;;;;;18.15;8.05;;;27.80;99.90;;;;;;5134180;27;20399;-63
2023/06/21 10:14:20;;;;;;;15.52;8.20;;;27.90;99.90;;;;;;5129284;27;20059;-63
2023/06/21 10:16:53;;;;;;;19.65;8.25;;;28.00;99.90;;;;;;5132029;27;20043;-63
2023/06/21 10:19:24;;;;;;;12.93;8.07;;;28.00;99.90;;;;;;5134091;27;20035;-63
2023/06/21 10:22:21;;;;;;;16.70;8.02;;;28.00;99.90;;;;;;5134282;27;20043;-63
2023/06/21 10:24:50;;;;;;;14.85;8.38;;;28.00;99.90;;;;;;5123910;27;20113;-63
2023/06/21 10:27:20;;;;;;;15.60;7.38;;;28.10;99.90;;;;;;5134758;27;20047;-62
2023/06/21 10:29:57;;;;;;;13.85;8.05;;;28.20;99.90;;;;;;5134372;27;20043;-63
2023/06/21 10:32:25;;;;;;;17.65;9.05;;;28.30;99.90;;;;;;5131221;27;20039;-63
2023/06/21 10:35:04;;;;;;;14.07;7.65;;;28.40;99.90;;;;;;5131505;27;20441;-63
2023/06/21 10:37:40;;;;;;;19.58;8.35;;;28.40;99.90;;;;;;5133785;27;20044;-62
2023/06/21 10:40:09;;;;;;;19.13;7.72;;;28.40;99.90;;;;;;5133919;27;20055;-63
2023/06/21 10:42:38;;;;;;;14.38;7.95;;;28.50;99.90;;;;;;5132380;27;20387;-63
2023/06/21 10:45:09;;;;;;;13.07;7.65;;;28.60;99.90;;;;;;5134600;27;20039;-63
2023/06/21 10:47:38;;;;;;;15.38;7.28;;;28.60;99.90;;;;;;5134019;27;20487;-63
2023/06/21 10:50:09;;;;;;;20.58;7.25;;;28.70;99.90;;;;;;5134385;27;20047;-63
2023/06/21 10:52:37;;;;;;;18.05;8.00;;;28.70;99.90;;;;;;5131128;27;20103;-63
2023/06/21 10:55:04;;;;;;;15.65;8.13;;;28.70;99.90;;;;;;5133722;27;20057;-63
2023/06/21 10:57:33;;;;;;;14.85;7.60;;;28.80;99.90;;;;;;5134009;27;20043;-63
2023/06/21 11:00:04;;;;;;;19.70;8.50;;;28.70;99.90;;;;;;5129533;27;20040;-63
2023/06/21 11:02:32;;;;;;;15.05;8.15;;;28.80;99.90;;;;;;5133750;27;20042;-63
2023/06/21 11:05:21;;;;;;;16.48;8.40;;;28.80;99.90;;;;;;5133364;27;20063;-63
2023/06/21 11:07:57;;;;;;;14.50;7.95;;;29.00;99.90;;;;;;5133886;27;20395;-63
2023/06/21 11:10:47;;;;;;;16.80;8.57;;;29.00;99.90;;;;;;5127038;27;20045;-63
2023/06/21 11:13:15;;;;;;;19.77;8.02;;;29.00;99.90;;;;;;5125808;27;20043;-63
2023/06/21 11:15:45;;;;;;;21.85;8.25;;;28.90;99.90;;;;;;5131310;27;20564;-63
2023/06/21 11:18:20;;;;;;;14.82;7.55;;;29.00;99.90;;;;;;5133301;27;20137;-63
2023/06/21 11:20:49;;;;;;;16.60;8.20;;;28.90;99.90;;;;;;5132693;27;20035;-63
2023/06/21 11:23:25;;;;;;;17.30;8.35;;;28.80;99.90;;;;;;5131284;27;20057;-63
2023/06/21 11:26:03;;;;;;;19.35;8.70;;;28.90;99.90;;;;;;5132903;27;20047;-63
2023/06/21 11:28:33;;;;;;;12.75;7.97;;;29.00;99.90;;;;;;5133199;27;20041;-63
2023/06/21 11:31:00;;;;;;;18.80;8.57;;;29.00;99.90;;;;;;5131081;27;20057;-63
2023/06/21 11:33:32;;;;;;;20.80;8.00;;;29.10;99.90;;;;;;5116292;27;20039;-63
2023/06/21 11:36:03;;;;;;;12.55;8.05;;;29.10;99.90;;;;;;5122644;27;20031;-63
2023/06/21 11:38:31;;;;;;;18.60;8.55;;;29.00;99.90;;;;;;5132794;27;20036;-63
2023/06/21 11:40:58;;;;;;;12.65;7.22;;;29.10;99.90;;;;;;5124844;27;20040;-63
2023/06/21 11:43:26;;;;;;;13.05;8.30;;;29.20;99.90;;;;;;5133270;27;20023;-63
2023/06/21 11:45:56;;;;;;;12.00;7.50;;;29.40;99.90;;;;;;5094167;27;20039;-63
2023/06/21 11:48:27;;;;;;;15.52;7.95;;;29.50;99.90;;;;;;5133269;27;20480;-63
2023/06/21 11:50:55;;;;;;;20.05;7.57;;;29.50;99.90;;;;;;5131517;27;20047;-63
2023/06/21 11:53:26;;;;;;;13.45;7.60;;;29.30;99.90;;;;;;5133097;27;20047;-63
2023/06/21 11:55:55;;;;;;;13.93;7.07;;;29.00;99.90;;;;;;5125345;27;20560;-63
2023/06/21 11:58:22;;;;;;;18.77;8.23;;;29.00;99.90;;;;;;5133033;27;20039;-63
2023/06/21 12:00:50;;;;;;;15.95;8.05;;;29.30;99.90;;;;;;5122496;27;20126;-63
2023/06/21 12:03:18;;;;;;;15.35;7.88;;;29.40;99.90;;;;;;5132990;27;20027;-63
2023/06/21 12:06:04;;;;;;;18.00;7.97;;;29.60;99.90;;;;;;5131364;27;20272;-63
2023/06/21 12:08:34;;;;;;;16.02;8.07;;;29.60;99.90;;;;;;5132525;27;20126;-62
2023/06/21 12:11:08;;;;;;;13.32;7.85;;;29.70;99.90;;;;;;5129635;27;20058;-63
2023/06/21 12:13:37;;;;;;;13.73;8.80;;;29.80;99.90;;;;;;5132329;27;20043;-63
2023/06/21 12:16:06;;;;;;;22.55;8.27;;;29.90;99.90;;;;;;5132053;27;20407;-63
2023/06/21 12:18:35;;;;;;;14.00;7.82;;;29.40;99.90;;;;;;5130838;27;20413;-63
2023/06/21 12:21:04;;;;;;;14.20;8.35;;;28.70;99.90;;;;;;5132050;27;20043;-63
2023/06/21 12:23:31;;;;;;;14.90;8.20;;;28.30;99.90;;;;;;5132309;27;20039;-63
2023/06/21 12:26:01;;;;;;;16.10;8.38;;;28.00;99.90;;;;;;5131972;27;20039;-63
2023/06/21 12:28:30;;;;;;;17.15;8.90;;;27.90;99.90;;;;;;5130301;27;20039;-63
2023/06/21 12:30:57;;;;;;;18.17;8.15;;;27.80;99.90;;;;;;5131795;27;20054;-63
2023/06/21 12:33:27;;;;;;;19.67;8.98;;;27.80;99.90;;;;;;5125062;27;20104;-63
2023/06/21 12:36:12;;;;;;;20.80;8.85;;;27.90;99.90;;;;;;5121103;27;20043;-63
2023/06/21 12:38:42;;;;;;;16.05;8.85;;;27.90;99.90;;;;;;5131964;27;20031;-63
2023/06/21 12:41:13;;;;;;;20.30;8.85;;;28.10;99.90;;;;;;5131128;27;20536;-63
2023/06/21 12:43:42;;;;;;;20.13;8.60;;;28.70;99.90;;;;;;5123181;27;20509;-63
2023/06/21 12:46:11;;;;;;;19.63;9.65;;;29.40;99.90;;;;;;5114006;27;20502;-63
2023/06/21 12:48:49;;;;;;;23.33;9.07;;;29.90;99.90;;;;;;5131933;27;20039;-63
2023/06/21 12:51:28;;;;;;;16.17;8.48;;;30.00;99.90;;;;;;5121526;27;20073;-63